Aérodrome :
LOGIN :

S'inscrire | Disclaimer

   EN    FR    IT 

 










Légende :    VFR   VFR Marginal   IFR   IFR Intensif   IFR Très Intensif
Visi : 
Plafond : 
>= 8 km
>= 3000ft
5 à 8 km
1000 à 3000 ft
1500m à 5 km
500 à 1000 ft
800 à 1500m
200 à 500 ft
< 800m
< 200 ft
Symboles :   Orages  Brouillard  Fortes neiges  Fortes précipitations  Vent > 20 kt
SIGMETs :   Divers  Orages  Givrage  Turbulence  Onde Orograph.  Cendres Volcan.






- Altitude de l'aérodrome : 30 ft
- Code IATA : CFN


EIDL - Donegal

DERNIER METAR :
  • 081200Z 21014KT 9999 OVC021 13/08 Q1023

METARs EXPIRÉS :
  • 081130Z 22014KT 9999 OVC020 13/08 Q1023
  • 081100Z 21012KT 9999 FEW020 OVC023 13/08 Q1023
  • 081030Z 19013KT 9999 BKN019 BKN027 12/07 Q1023
  • 081000Z 20011KT 9999 SCT018 SCT026 OVC035 12/07 Q1023

TAF TAF EIDL
Valide du 08 à 12h jusqu'au 08 à 21h UTC


081100Z 0812/0821 21012KT 9999 SCT010 BKN025
PROB40
TEMPO 0812/0818 4000 -DZ BKN010
BECMG 0818/0820 20005KT
TEMPO 0818/0821



MET'MAP, la Météo Aéronautique d'un coup d'oeil ! - Copyright ORBIFLY Décembre 2007 - Disclaimer

ORBIFLY MET'MAP TEAM :

Programmation & Développement : Alexandra Zaïnal
Sur une idée originale de : Baudouin d'Aumeries
Assistance à la programmation : Marc-Olivier Méhu
Soutien technique & logistique : Manuel Goepfert

Contact : metmap@orbifly.com




SOURCES & CREDITS :

   NOAA